sensor_id;sensor_type;location;lat;lon;timestamp;pressure;altitude;pressure_sealevel;temperature;humidity
7584;BME280;3833;41.764;26.204;2022-12-29T00:00:10;100017.66;;;4.50;100.00
7584;BME280;3833;41.764;26.204;2022-12-29T00:02:37;100062.16;;;4.64;100.00
7584;BME280;3833;41.764;26.204;2022-12-29T00:05:05;100062.16;;;4.64;100.00
7584;BME280;3833;41.764;26.204;2022-12-29T00:07:32;100066.75;;;4.52;100.00
7584;BME280;3833;41.764;26.204;2022-12-29T00:10:00;100069.75;;;4.32;100.00
7584;BME280;3833;41.764;26.204;2022-12-29T00:12:27;99964.28;;;3.68;100.00
7584;BME280;3833;41.764;26.204;2022-12-29T00:15:15;100065.56;;;4.25;100.00
7584;BME280;3833;41.764;26.204;2022-12-29T00:17:59;99976.31;;;3.69;100.00
7584;BME280;3833;41.764;26.204;2022-12-29T00:20:26;100065.44;;;3.88;100.00
7584;BME280;3833;41.764;26.204;2022-12-29T00:23:10;100071.50;;;3.87;100.00
7584;BME280;3833;41.764;26.204;2022-12-29T00:25:56;100073.84;;;3.99;100.00
7584;BME280;3833;41.764;26.204;2022-12-29T00:28:36;100078.94;;;4.03;100.00
7584;BME280;3833;41.764;26.204;2022-12-29T00:31:21;100082.41;;;4.01;100.00
7584;BME280;3833;41.764;26.204;2022-12-29T00:34:10;100000.16;;;3.34;100.00
7584;BME280;3833;41.764;26.204;2022-12-29T00:36:54;100082.69;;;3.86;100.00
7584;BME280;3833;41.764;26.204;2022-12-29T00:39:21;100084.41;;;3.87;100.00
7584;BME280;3833;41.764;26.204;2022-12-29T00:42:08;100073.63;;;3.64;100.00
7584;BME280;3833;41.764;26.204;2022-12-29T00:44:58;100078.59;;;3.76;100.00
7584;BME280;3833;41.764;26.204;2022-12-29T00:47:24;100076.06;;;3.73;100.00
7584;BME280;3833;41.764;26.204;2022-12-29T00:49:51;100075.13;;;3.75;100.00
7584;BME280;3833;41.764;26.204;2022-12-29T00:52:17;100077.84;;;3.68;100.00
7584;BME280;3833;41.764;26.204;2022-12-29T00:54:44;100079.88;;;3.51;100.00
7584;BME280;3833;41.764;26.204;2022-12-29T00:57:12;100076.50;;;3.46;100.00
7584;BME280;3833;41.764;26.204;2022-12-29T00:59:40;100075.78;;;3.38;100.00
7584;BME280;3833;41.764;26.204;2022-12-29T01:02:08;100085.03;;;3.51;100.00
7584;BME280;3833;41.764;26.204;2022-12-29T01:04:36;99967.38;;;2.90;100.00
7584;BME280;3833;41.764;26.204;2022-12-29T01:07:03;100071.25;;;3.52;100.00
7584;BME280;3833;41.764;26.204;2022-12-29T01:09:31;100043.09;;;3.37;100.00
7584;BME280;3833;41.764;26.204;2022-12-29T01:12:16;100036.38;;;3.30;100.00
7584;BME280;3833;41.764;26.204;2022-12-29T01:15:04;100056.00;;;3.38;100.00
7584;BME280;3833;41.764;26.204;2022-12-29T01:17:31;100063.03;;;3.27;100.00
7584;BME280;3833;41.764;26.204;2022-12-29T01:19:57;100040.84;;;3.19;100.00
7584;BME280;3833;41.764;26.204;2022-12-29T01:22:24;100037.38;;;3.20;100.00
7584;BME280;3833;41.764;26.204;2022-12-29T01:24:51;100056.97;;;3.33;100.00
7584;BME280;3833;41.764;26.204;2022-12-29T01:27:19;100054.44;;;3.30;100.00
7584;BME280;3833;41.764;26.204;2022-12-29T01:29:46;100045.84;;;3.28;100.00
7584;BME280;3833;41.764;26.204;2022-12-29T01:32:13;100044.97;;;3.29;100.00
7584;BME280;3833;41.764;26.204;2022-12-29T01:34:39;100036.50;;;3.21;100.00
7584;BME280;3833;41.764;26.204;2022-12-29T01:37:06;100030.72;;;3.07;100.00
7584;BME280;3833;41.764;26.204;2022-12-29T01:39:33;100028.94;;;3.12;100.00
7584;BME280;3833;41.764;26.204;2022-12-29T01:42:00;99985.50;;;2.85;100.00
7584;BME280;3833;41.764;26.204;2022-12-29T01:44:55;100032.78;;;2.84;100.00
7584;BME280;3833;41.764;26.204;2022-12-29T01:47:28;99920.06;;;2.39;100.00
7584;BME280;3833;41.764;26.204;2022-12-29T01:49:58;100028.00;;;3.14;100.00
7584;BME280;3833;41.764;26.204;2022-12-29T01:52:29;100024.66;;;3.11;100.00
7584;BME280;3833;41.764;26.204;2022-12-29T01:54:59;100017.75;;;3.13;100.00
7584;BME280;3833;41.764;26.204;2022-12-29T01:57:38;100021.94;;;3.17;100.00
7584;BME280;3833;41.764;26.204;2022-12-29T02:00:10;100019.38;;;3.17;100.00
7584;BME280;3833;41.764;26.204;2022-12-29T02:02:37;100020.09;;;3.25;100.00
7584;BME280;3833;41.764;26.204;2022-12-29T02:05:10;100018.25;;;3.33;100.00
7584;BME280;3833;41.764;26.204;2022-12-29T02:07:38;100013.25;;;3.24;100.00
7584;BME280;3833;41.764;26.204;2022-12-29T02:10:06;100023.59;;;3.21;100.00
7584;BME280;3833;41.764;26.204;2022-12-29T02:12:33;100012.44;;;3.20;100.00
7584;BME280;3833;41.764;26.204;2022-12-29T02:15:02;99980.91;;;3.05;100.00
7584;BME280;3833;41.764;26.204;2022-12-29T02:17:44;99922.28;;;2.65;100.00
7584;BME280;3833;41.764;26.204;2022-12-29T02:23:30;100020.91;;;3.28;100.00
7584;BME280;3833;41.764;26.204;2022-12-29T02:29:20;100004.50;;;3.34;100.00
7584;BME280;3833;41.764;26.204;2022-12-29T02:31:58;100012.97;;;3.39;100.00
7584;BME280;3833;41.764;26.204;2022-12-29T02:34:35;99997.75;;;3.24;100.00
7584;BME280;3833;41.764;26.204;2022-12-29T02:37:09;99994.22;;;3.31;100.00
7584;BME280;3833;41.764;26.204;2022-12-29T02:39:42;100016.38;;;3.41;100.00
7584;BME280;3833;41.764;26.204;2022-12-29T02:42:14;99991.69;;;3.28;100.00
7584;BME280;3833;41.764;26.204;2022-12-29T02:44:54;100020.00;;;3.31;100.00
7584;BME280;3833;41.764;26.204;2022-12-29T02:47:28;100004.72;;;3.19;100.00
7584;BME280;3833;41.764;26.204;2022-12-29T02:50:01;100020.16;;;3.22;100.00
7584;BME280;3833;41.764;26.204;2022-12-29T02:52:32;100021.81;;;3.26;100.00
7584;BME280;3833;41.764;26.204;2022-12-29T02:55:01;100022.78;;;3.20;100.00
7584;BME280;3833;41.764;26.204;2022-12-29T02:57:32;100024.53;;;3.17;100.00
7584;BME280;3833;41.764;26.204;2022-12-29T03:00:02;100016.00;;;3.13;100.00
7584;BME280;3833;41.764;26.204;2022-12-29T03:02:44;100022.84;;;3.14;100.00
7584;BME280;3833;41.764;26.204;2022-12-29T03:05:19;100003.34;;;2.97;100.00
7584;BME280;3833;41.764;26.204;2022-12-29T03:07:54;100022.06;;;3.11;100.00
7584;BME280;3833;41.764;26.204;2022-12-29T03:10:46;100016.88;;;3.14;100.00
7584;BME280;3833;41.764;26.204;2022-12-29T03:13:23;100016.94;;;3.08;100.00
7584;BME280;3833;41.764;26.204;2022-12-29T03:16:15;100025.56;;;3.07;100.00
7584;BME280;3833;41.764;26.204;2022-12-29T03:18:54;100028.34;;;2.94;100.00
7584;BME280;3833;41.764;26.204;2022-12-29T03:21:30;100020.69;;;2.89;100.00
7584;BME280;3833;41.764;26.204;2022-12-29T03:24:17;100001.22;;;2.70;100.00
7584;BME280;3833;41.764;26.204;2022-12-29T03:26:46;100027.63;;;2.84;100.00
7584;BME280;3833;41.764;26.204;2022-12-29T03:29:15;99997.50;;;2.88;100.00
7584;BME280;3833;41.764;26.204;2022-12-29T03:31:44;99969.41;;;2.71;100.00
7584;BME280;3833;41.764;26.204;2022-12-29T03:34:14;100012.97;;;2.88;100.00
7584;BME280;3833;41.764;26.204;2022-12-29T03:36:46;100011.25;;;2.87;100.00
7584;BME280;3833;41.764;26.204;2022-12-29T03:39:14;100006.06;;;2.91;100.00
7584;BME280;3833;41.764;26.204;2022-12-29T03:41:43;100016.38;;;2.91;100.00
7584;BME280;3833;41.764;26.204;2022-12-29T03:44:12;100012.22;;;2.81;100.00
7584;BME280;3833;41.764;26.204;2022-12-29T03:46:39;100006.97;;;2.87;100.00
7584;BME280;3833;41.764;26.204;2022-12-29T03:49:06;100018.91;;;2.94;100.00
7584;BME280;3833;41.764;26.204;2022-12-29T03:51:34;100019.00;;;2.87;100.00
7584;BME280;3833;41.764;26.204;2022-12-29T03:54:01;100015.63;;;2.85;100.00
7584;BME280;3833;41.764;26.204;2022-12-29T03:56:28;100019.09;;;2.79;100.00
7584;BME280;3833;41.764;26.204;2022-12-29T03:58:55;100019.16;;;2.78;100.00
7584;BME280;3833;41.764;26.204;2022-12-29T04:01:22;100001.19;;;2.72;100.00
7584;BME280;3833;41.764;26.204;2022-12-29T04:03:49;100008.75;;;2.82;100.00
7584;BME280;3833;41.764;26.204;2022-12-29T04:06:15;100013.94;;;2.81;100.00
7584;BME280;3833;41.764;26.204;2022-12-29T04:08:43;99998.69;;;2.67;100.00
7584;BME280;3833;41.764;26.204;2022-12-29T04:11:10;99995.25;;;2.68;100.00
7584;BME280;3833;41.764;26.204;2022-12-29T04:13:37;100026.78;;;2.84;100.00
7584;BME280;3833;41.764;26.204;2022-12-29T04:16:06;100024.25;;;2.81;100.00
7584;BME280;3833;41.764;26.204;2022-12-29T04:18:33;100029.72;;;2.58;100.00
7584;BME280;3833;41.764;26.204;2022-12-29T04:21:00;100027.97;;;2.60;100.00
7584;BME280;3833;41.764;26.204;2022-12-29T04:23:26;100034.00;;;2.61;100.00
7584;BME280;3833;41.764;26.204;2022-12-29T04:25:54;100027.94;;;2.63;100.00
7584;BME280;3833;41.764;26.204;2022-12-29T04:28:21;100001.53;;;2.49;100.00
7584;BME280;3833;41.764;26.204;2022-12-29T04:30:48;100005.84;;;2.47;100.00
7584;BME280;3833;41.764;26.204;2022-12-29T04:33:15;100022.00;;;2.58;100.00
7584;BME280;3833;41.764;26.204;2022-12-29T04:35:43;100026.91;;;2.75;100.00
7584;BME280;3833;41.764;26.204;2022-12-29T04:38:10;100028.53;;;2.82;100.00
7584;BME280;3833;41.764;26.204;2022-12-29T04:40:38;100031.09;;;2.83;100.00
7584;BME280;3833;41.764;26.204;2022-12-29T04:43:06;100025.81;;;2.92;100.00
7584;BME280;3833;41.764;26.204;2022-12-29T04:45:33;100028.38;;;2.92;100.00
7584;BME280;3833;41.764;26.204;2022-12-29T04:48:00;100022.47;;;2.84;100.00
7584;BME280;3833;41.764;26.204;2022-12-29T04:50:27;100021.53;;;2.90;100.00
7584;BME280;3833;41.764;26.204;2022-12-29T04:52:54;100004.47;;;2.83;100.00
7584;BME280;3833;41.764;26.204;2022-12-29T04:55:21;100026.59;;;2.96;100.00
7584;BME280;3833;41.764;26.204;2022-12-29T04:57:48;100009.56;;;2.86;100.00
7584;BME280;3833;41.764;26.204;2022-12-29T05:00:16;100030.75;;;3.04;100.00
7584;BME280;3833;41.764;26.204;2022-12-29T05:02:43;100034.16;;;3.06;100.00
7584;BME280;3833;41.764;26.204;2022-12-29T05:05:10;100032.53;;;3.01;100.00
7584;BME280;3833;41.764;26.204;2022-12-29T05:07:37;99995.03;;;2.80;100.00
7584;BME280;3833;41.764;26.204;2022-12-29T05:10:04;100036.00;;;2.98;100.00
7584;BME280;3833;41.764;26.204;2022-12-29T05:12:32;100033.47;;;2.97;100.00
7584;BME280;3833;41.764;26.204;2022-12-29T05:14:59;100019.06;;;2.82;100.00
7584;BME280;3833;41.764;26.204;2022-12-29T05:17:29;100028.50;;;2.83;100.00
7584;BME280;3833;41.764;26.204;2022-12-29T05:19:56;100026.88;;;2.76;100.00
7584;BME280;3833;41.764;26.204;2022-12-29T05:22:23;100031.16;;;2.77;100.00
7584;BME280;3833;41.764;26.204;2022-12-29T05:24:50;100010.78;;;2.64;100.00
7584;BME280;3833;41.764;26.204;2022-12-29T05:27:16;100042.19;;;2.88;100.00
7584;BME280;3833;41.764;26.204;2022-12-29T05:29:43;100033.59;;;2.89;100.00
7584;BME280;3833;41.764;26.204;2022-12-29T05:32:10;100037.09;;;2.84;100.00
7584;BME280;3833;41.764;26.204;2022-12-29T05:34:38;100044.88;;;2.81;100.00
7584;BME280;3833;41.764;26.204;2022-12-29T05:37:05;100034.56;;;2.81;100.00
7584;BME280;3833;41.764;26.204;2022-12-29T05:39:32;100037.91;;;2.87;100.00
7584;BME280;3833;41.764;26.204;2022-12-29T05:41:59;100034.47;;;2.88;100.00
7584;BME280;3833;41.764;26.204;2022-12-29T05:44:25;99990.03;;;2.71;100.00
7584;BME280;3833;41.764;26.204;2022-12-29T05:46:52;100033.53;;;2.92;100.00
7584;BME280;3833;41.764;26.204;2022-12-29T05:49:19;99988.41;;;2.64;100.00
7584;BME280;3833;41.764;26.204;2022-12-29T05:51:47;100031.72;;;2.97;100.00
7584;BME280;3833;41.764;26.204;2022-12-29T05:54:14;100032.59;;;2.96;100.00
7584;BME280;3833;41.764;26.204;2022-12-29T05:56:41;100029.06;;;3.03;100.00
7584;BME280;3833;41.764;26.204;2022-12-29T05:59:08;100030.81;;;3.01;100.00
7584;BME280;3833;41.764;26.204;2022-12-29T06:01:35;100034.97;;;3.11;100.00
7584;BME280;3833;41.764;26.204;2022-12-29T06:04:02;100031.34;;;3.21;100.00
7584;BME280;3833;41.764;26.204;2022-12-29T06:06:29;100035.84;;;3.10;100.00
7584;BME280;3833;41.764;26.204;2022-12-29T06:08:57;100011.13;;;2.96;100.00
7584;BME280;3833;41.764;26.204;2022-12-29T06:11:24;100037.53;;;3.11;100.00
7584;BME280;3833;41.764;26.204;2022-12-29T06:13:51;100029.75;;;3.14;100.00
7584;BME280;3833;41.764;26.204;2022-12-29T06:16:18;100041.63;;;3.24;100.00
7584;BME280;3833;41.764;26.204;2022-12-29T06:18:44;100037.25;;;3.29;100.00
7584;BME280;3833;41.764;26.204;2022-12-29T06:21:11;100026.31;;;3.15;100.00
7584;BME280;3833;41.764;26.204;2022-12-29T06:23:38;100051.81;;;3.31;100.00
7584;BME280;3833;41.764;26.204;2022-12-29T06:26:07;100047.75;;;3.17;100.00
7584;BME280;3833;41.764;26.204;2022-12-29T06:28:34;100048.59;;;3.17;100.00
7584;BME280;3833;41.764;26.204;2022-12-29T06:31:01;100034.13;;;3.09;100.00
7584;BME280;3833;41.764;26.204;2022-12-29T06:33:30;100059.69;;;3.24;100.00
7584;BME280;3833;41.764;26.204;2022-12-29T06:35:56;100061.38;;;3.25;100.00
7584;BME280;3833;41.764;26.204;2022-12-29T06:38:23;100048.53;;;3.22;100.00
7584;BME280;3833;41.764;26.204;2022-12-29T06:40:50;100056.00;;;3.37;100.00
7584;BME280;3833;41.764;26.204;2022-12-29T06:43:18;100055.13;;;3.39;100.00
7584;BME280;3833;41.764;26.204;2022-12-29T06:45:45;100048.34;;;3.34;100.00
7584;BME280;3833;41.764;26.204;2022-12-29T06:48:12;100065.94;;;3.61;100.00
7584;BME280;3833;41.764;26.204;2022-12-29T06:50:39;100042.19;;;3.41;100.00
7584;BME280;3833;41.764;26.204;2022-12-29T06:53:06;100067.84;;;3.50;100.00
7584;BME280;3833;41.764;26.204;2022-12-29T06:55:33;100066.97;;;3.49;100.00
7584;BME280;3833;41.764;26.204;2022-12-29T06:57:59;100067.81;;;3.53;100.00
7584;BME280;3833;41.764;26.204;2022-12-29T07:00:28;100064.25;;;3.57;100.00
7584;BME280;3833;41.764;26.204;2022-12-29T07:02:56;100066.84;;;3.58;100.00
7584;BME280;3833;41.764;26.204;2022-12-29T07:05:23;100065.03;;;3.63;100.00
7584;BME280;3833;41.764;26.204;2022-12-29T07:07:53;100074.53;;;3.60;100.00
7584;BME280;3833;41.764;26.204;2022-12-29T07:10:20;100078.94;;;4.02;100.00
7584;BME280;3833;41.764;26.204;2022-12-29T07:12:47;100082.75;;;5.08;100.00
7584;BME280;3833;41.764;26.204;2022-12-29T07:15:13;100079.22;;;5.82;100.00
7584;BME280;3833;41.764;26.204;2022-12-29T07:17:42;100080.66;;;6.54;100.00
7584;BME280;3833;41.764;26.204;2022-12-29T07:20:09;100080.34;;;7.20;100.00
7584;BME280;3833;41.764;26.204;2022-12-29T07:22:36;100088.63;;;7.59;100.00
7584;BME280;3833;41.764;26.204;2022-12-29T07:25:04;100063.94;;;7.72;100.00
7584;BME280;3833;41.764;26.204;2022-12-29T07:27:31;100067.25;;;8.25;100.00
7584;BME280;3833;41.764;26.204;2022-12-29T07:29:58;100056.81;;;8.03;100.00
7584;BME280;3833;41.764;26.204;2022-12-29T07:32:25;100081.91;;;8.04;100.00
7584;BME280;3833;41.764;26.204;2022-12-29T07:34:53;100079.88;;;8.12;100.00
7584;BME280;3833;41.764;26.204;2022-12-29T07:37:20;100089.38;;;8.84;100.00
7584;BME280;3833;41.764;26.204;2022-12-29T07:39:47;100095.69;;;9.22;100.00
7584;BME280;3833;41.764;26.204;2022-12-29T07:42:14;100086.59;;;9.53;100.00
7584;BME280;3833;41.764;26.204;2022-12-29T07:44:40;100087.84;;;9.66;100.00
7584;BME280;3833;41.764;26.204;2022-12-29T07:47:07;100081.63;;;9.68;100.00
7584;BME280;3833;41.764;26.204;2022-12-29T07:49:34;99994.69;;;9.28;100.00
7584;BME280;3833;41.764;26.204;2022-12-29T07:52:02;100084.50;;;10.04;100.00
7584;BME280;3833;41.764;26.204;2022-12-29T07:54:29;100088.69;;;10.28;100.00
7584;BME280;3833;41.764;26.204;2022-12-29T07:56:56;100086.63;;;10.72;100.00
7584;BME280;3833;41.764;26.204;2022-12-29T07:59:25;100010.22;;;10.31;100.00
7584;BME280;3833;41.764;26.204;2022-12-29T08:01:52;100071.53;;;10.60;100.00
7584;BME280;3833;41.764;26.204;2022-12-29T08:04:19;100089.88;;;10.77;100.00
7584;BME280;3833;41.764;26.204;2022-12-29T08:06:46;100083.94;;;10.92;100.00
7584;BME280;3833;41.764;26.204;2022-12-29T08:09:14;100087.66;;;10.88;100.00
7584;BME280;3833;41.764;26.204;2022-12-29T08:11:41;100091.72;;;11.12;100.00
7584;BME280;3833;41.764;26.204;2022-12-29T08:14:09;100063.47;;;11.02;100.00
7584;BME280;3833;41.764;26.204;2022-12-29T08:16:36;100081.56;;;11.06;100.00
7584;BME280;3833;41.764;26.204;2022-12-29T08:19:03;100013.38;;;10.57;100.00
7584;BME280;3833;41.764;26.204;2022-12-29T08:21:30;100006.44;;;10.37;100.00
7584;BME280;3833;41.764;26.204;2022-12-29T08:23:57;100087.66;;;10.88;100.00
7584;BME280;3833;41.764;26.204;2022-12-29T08:26:26;100087.00;;;10.83;100.00
7584;BME280;3833;41.764;26.204;2022-12-29T08:28:53;100080.44;;;11.12;100.00
7584;BME280;3833;41.764;26.204;2022-12-29T08:31:21;100084.09;;;11.26;100.00
7584;BME280;3833;41.764;26.204;2022-12-29T08:33:48;100089.22;;;11.46;100.00
7584;BME280;3833;41.764;26.204;2022-12-29T08:36:15;100087.56;;;11.43;100.00
7584;BME280;3833;41.764;26.204;2022-12-29T08:38:42;100061.63;;;11.22;100.00
7584;BME280;3833;41.764;26.204;2022-12-29T08:41:08;100083.50;;;11.38;100.00
7584;BME280;3833;41.764;26.204;2022-12-29T08:43:37;100058.66;;;11.30;100.00
7584;BME280;3833;41.764;26.204;2022-12-29T08:46:04;100089.84;;;11.51;100.00
7584;BME280;3833;41.764;26.204;2022-12-29T08:48:30;100077.84;;;11.47;100.00
7584;BME280;3833;41.764;26.204;2022-12-29T08:50:57;100060.09;;;11.35;100.00
7584;BME280;3833;41.764;26.204;2022-12-29T08:53:24;100032.91;;;11.39;100.00
7584;BME280;3833;41.764;26.204;2022-12-29T08:55:56;100089.28;;;11.63;100.00
7584;BME280;3833;41.764;26.204;2022-12-29T08:58:23;100079.13;;;11.74;100.00
7584;BME280;3833;41.764;26.204;2022-12-29T09:00:53;100084.69;;;11.49;100.00
7584;BME280;3833;41.764;26.204;2022-12-29T09:03:20;100076.75;;;11.69;100.00
7584;BME280;3833;41.764;26.204;2022-12-29T09:05:48;100027.59;;;11.59;100.00
7584;BME280;3833;41.764;26.204;2022-12-29T09:08:15;100077.22;;;11.77;100.00
7584;BME280;3833;41.764;26.204;2022-12-29T09:10:42;100059.13;;;11.73;100.00
7584;BME280;3833;41.764;26.204;2022-12-29T09:13:10;100068.66;;;11.74;100.00
7584;BME280;3833;41.764;26.204;2022-12-29T09:15:37;100065.31;;;11.72;100.00
7584;BME280;3833;41.764;26.204;2022-12-29T09:18:06;100066.66;;;11.62;100.00
7584;BME280;3833;41.764;26.204;2022-12-29T09:20:33;100063.13;;;11.63;100.00
7584;BME280;3833;41.764;26.204;2022-12-29T09:23:00;100047.06;;;11.52;100.00
7584;BME280;3833;41.764;26.204;2022-12-29T09:25:27;100061.28;;;11.65;100.00
7584;BME280;3833;41.764;26.204;2022-12-29T09:27:54;100058.03;;;11.60;100.00
7584;BME280;3833;41.764;26.204;2022-12-29T09:30:22;100037.03;;;11.26;100.00
7584;BME280;3833;41.764;26.204;2022-12-29T09:32:49;100049.56;;;11.55;100.00
7584;BME280;3833;41.764;26.204;2022-12-29T09:35:18;100024.03;;;11.60;100.00
7584;BME280;3833;41.764;26.204;2022-12-29T09:37:44;99963.09;;;11.24;100.00
7584;BME280;3833;41.764;26.204;2022-12-29T09:40:24;99938.59;;;10.91;100.00
7584;BME280;3833;41.764;26.204;2022-12-29T09:43:17;100034.50;;;11.41;100.00
7584;BME280;3833;41.764;26.204;2022-12-29T09:45:54;100010.00;;;11.44;100.00
7584;BME280;3833;41.764;26.204;2022-12-29T09:48:26;100027.75;;;11.38;100.00
7584;BME280;3833;41.764;26.204;2022-12-29T09:50:59;99796.28;;;10.12;100.00
7584;BME280;3833;41.764;26.204;2022-12-29T09:53:29;99952.63;;;11.07;100.00
7584;BME280;3833;41.764;26.204;2022-12-29T09:56:00;100020.31;;;11.47;100.00
7584;BME280;3833;41.764;26.204;2022-12-29T09:58:30;100007.53;;;11.41;100.00
7584;BME280;3833;41.764;26.204;2022-12-29T10:01:04;99994.56;;;11.39;100.00
7584;BME280;3833;41.764;26.204;2022-12-29T10:03:39;100006.31;;;11.48;100.00
7584;BME280;3833;41.764;26.204;2022-12-29T10:06:11;99998.28;;;11.34;100.00
7584;BME280;3833;41.764;26.204;2022-12-29T10:08:45;100002.00;;;11.30;100.00
7584;BME280;3833;41.764;26.204;2022-12-29T10:11:23;99992.41;;;11.12;100.00
7584;BME280;3833;41.764;26.204;2022-12-29T10:14:12;99991.84;;;11.24;100.00
7584;BME280;3833;41.764;26.204;2022-12-29T10:16:49;99991.75;;;11.61;100.00
7584;BME280;3833;41.764;26.204;2022-12-29T10:19:28;99984.38;;;11.69;100.00
7584;BME280;3833;41.764;26.204;2022-12-29T10:22:09;99979.06;;;11.35;100.00
7584;BME280;3833;41.764;26.204;2022-12-29T10:24:40;99978.69;;;11.42;100.00
7584;BME280;3833;41.764;26.204;2022-12-29T10:27:10;99969.25;;;11.40;100.00
7584;BME280;3833;41.764;26.204;2022-12-29T10:29:41;99978.41;;;11.48;100.00
7584;BME280;3833;41.764;26.204;2022-12-29T10:32:21;99902.19;;;11.05;100.00
7584;BME280;3833;41.764;26.204;2022-12-29T10:34:53;99977.91;;;11.59;100.00
7584;BME280;3833;41.764;26.204;2022-12-29T10:37:30;99975.75;;;11.67;100.00
7584;BME280;3833;41.764;26.204;2022-12-29T10:39:59;99950.19;;;11.55;100.00
7584;BME280;3833;41.764;26.204;2022-12-29T10:42:33;99970.38;;;11.70;100.00
7584;BME280;3833;41.764;26.204;2022-12-29T10:45:03;99955.09;;;11.44;100.00
7584;BME280;3833;41.764;26.204;2022-12-29T10:47:35;99889.53;;;10.98;100.00
7584;BME280;3833;41.764;26.204;2022-12-29T10:50:05;99958.13;;;11.01;100.00
7584;BME280;3833;41.764;26.204;2022-12-29T10:52:34;99957.53;;;11.13;100.00
7584;BME280;3833;41.764;26.204;2022-12-29T10:55:08;99955.25;;;11.24;100.00
7584;BME280;3833;41.764;26.204;2022-12-29T10:57:41;99953.16;;;11.47;100.00
7584;BME280;3833;41.764;26.204;2022-12-29T11:00:12;99947.13;;;11.47;100.00
7584;BME280;3833;41.764;26.204;2022-12-29T11:05:46;99943.66;;;11.63;100.00
7584;BME280;3833;41.764;26.204;2022-12-29T11:08:19;99934.97;;;11.46;100.00
7584;BME280;3833;41.764;26.204;2022-12-29T11:10:57;99915.72;;;11.47;100.00
7584;BME280;3833;41.764;26.204;2022-12-29T11:13:27;99932.00;;;11.52;100.00
7584;BME280;3833;41.764;26.204;2022-12-29T11:15:54;99931.28;;;11.50;100.00
7584;BME280;3833;41.764;26.204;2022-12-29T11:18:22;99900.66;;;11.35;100.00
7584;BME280;3833;41.764;26.204;2022-12-29T11:20:51;99895.28;;;11.38;100.00
7584;BME280;3833;41.764;26.204;2022-12-29T11:23:26;99900.06;;;11.47;100.00
7584;BME280;3833;41.764;26.204;2022-12-29T11:26:16;99917.72;;;11.76;100.00
7584;BME280;3833;41.764;26.204;2022-12-29T11:28:45;99908.50;;;11.69;100.00
7584;BME280;3833;41.764;26.204;2022-12-29T11:31:16;99906.50;;;11.57;100.00
7584;BME280;3833;41.764;26.204;2022-12-29T11:33:43;99890.50;;;11.46;100.00
7584;BME280;3833;41.764;26.204;2022-12-29T11:36:13;99892.53;;;11.58;100.00
7584;BME280;3833;41.764;26.204;2022-12-29T11:38:47;99885.59;;;11.57;100.00
7584;BME280;3833;41.764;26.204;2022-12-29T11:41:20;99890.81;;;11.40;100.00
7584;BME280;3833;41.764;26.204;2022-12-29T11:43:49;99885.03;;;11.50;100.00
7584;BME280;3833;41.764;26.204;2022-12-29T11:46:20;99877.34;;;11.64;100.00
7584;BME280;3833;41.764;26.204;2022-12-29T11:48:47;99886.22;;;11.62;100.00
7584;BME280;3833;41.764;26.204;2022-12-29T11:51:22;99884.63;;;11.75;100.00
7584;BME280;3833;41.764;26.204;2022-12-29T11:53:55;99884.03;;;11.53;100.00
7584;BME280;3833;41.764;26.204;2022-12-29T11:56:33;99865.91;;;11.50;100.00
7584;BME280;3833;41.764;26.204;2022-12-29T12:02:36;99882.00;;;11.59;100.00
7584;BME280;3833;41.764;26.204;2022-12-29T12:05:13;99882.06;;;11.58;100.00
7584;BME280;3833;41.764;26.204;2022-12-29T12:07:44;99869.44;;;11.32;100.00
7584;BME280;3833;41.764;26.204;2022-12-29T12:10:27;99872.66;;;11.37;100.00
7584;BME280;3833;41.764;26.204;2022-12-29T12:13:11;99809.84;;;11.06;100.00
7584;BME280;3833;41.764;26.204;2022-12-29T12:15:45;99878.97;;;11.50;100.00
7584;BME280;3833;41.764;26.204;2022-12-29T12:18:17;99864.84;;;11.03;100.00
7584;BME280;3833;41.764;26.204;2022-12-29T12:20:48;99860.00;;;11.13;100.00
7584;BME280;3833;41.764;26.204;2022-12-29T12:23:25;99867.78;;;11.31;100.00
7584;BME280;3833;41.764;26.204;2022-12-29T12:26:03;99873.31;;;11.25;100.00
7584;BME280;3833;41.764;26.204;2022-12-29T12:28:42;99863.53;;;11.29;100.00
7584;BME280;3833;41.764;26.204;2022-12-29T12:31:18;99863.78;;;11.07;100.00
7584;BME280;3833;41.764;26.204;2022-12-29T12:33:52;99835.25;;;11.03;100.00
7584;BME280;3833;41.764;26.204;2022-12-29T12:36:36;99857.63;;;11.25;100.00
7584;BME280;3833;41.764;26.204;2022-12-29T12:39:12;99851.69;;;11.22;100.00
7584;BME280;3833;41.764;26.204;2022-12-29T12:41:53;99830.09;;;11.18;100.00
7584;BME280;3833;41.764;26.204;2022-12-29T12:44:28;99787.41;;;10.85;100.00
7584;BME280;3833;41.764;26.204;2022-12-29T12:47:15;99854.53;;;11.17;100.00
7584;BME280;3833;41.764;26.204;2022-12-29T12:50:11;99854.84;;;11.11;100.00
7584;BME280;3833;41.764;26.204;2022-12-29T12:53:01;99848.63;;;11.14;100.00
7584;BME280;3833;41.764;26.204;2022-12-29T12:55:42;99856.88;;;11.06;100.00
7584;BME280;3833;41.764;26.204;2022-12-29T12:58:23;99774.03;;;10.74;100.00
7584;BME280;3833;41.764;26.204;2022-12-29T13:01:02;99849.47;;;11.14;100.00
7584;BME280;3833;41.764;26.204;2022-12-29T13:03:45;99833.94;;;11.11;100.00
7584;BME280;3833;41.764;26.204;2022-12-29T13:06:20;99856.09;;;11.21;100.00
7584;BME280;3833;41.764;26.204;2022-12-29T13:12:07;99852.84;;;11.16;100.00
7584;BME280;3833;41.764;26.204;2022-12-29T13:14:47;99863.44;;;11.13;100.00
7584;BME280;3833;41.764;26.204;2022-12-29T13:17:21;99855.31;;;11.02;100.00
7584;BME280;3833;41.764;26.204;2022-12-29T13:19:55;99859.69;;;11.02;100.00
7584;BME280;3833;41.764;26.204;2022-12-29T13:22:28;99857.16;;;11.00;100.00
7584;BME280;3833;41.764;26.204;2022-12-29T13:25:14;99845.31;;;10.76;100.00
7584;BME280;3833;41.764;26.204;2022-12-29T13:27:48;99865.28;;;10.77;100.00
7584;BME280;3833;41.764;26.204;2022-12-29T13:30:22;99847.13;;;10.57;100.00
7584;BME280;3833;41.764;26.204;2022-12-29T13:32:56;99869.41;;;10.64;100.00
7584;BME280;3833;41.764;26.204;2022-12-29T13:35:37;99851.13;;;10.47;100.00